首页
METAR-TAF:

METAR-TAF

机场 :

多尼戈爾, 爱尔兰

纬度: 55-02-39N, 经度: 8-20-28W, 海拔: 9米

当前天气观测

该预报发布于30分钟前的08:00 UTC
风速15节,风向西转西南
温度 8°C
湿度 76%
气压 992 hPa
能见度10公里或以上
多云层高于3700英尺

METAR: EIDL 170800Z 25015KT 9999 BKN037 08/04 Q0992

时间: 08:30 (08:30 UTC)

预报

该预报发布于3小时和30分钟前的05:00 UTC
预报有效从17日的 06点(UTC)到 17日的 15点(UTC)
风速20节,风向西
能见度10公里或以上
少量云层高于2500英尺
多云层高于3500英尺
短暂存在
从 17日的 06点(UTC)到 17日的 15点(UTC)
风速25节,风向西,有时为35节阵风
散云层高于1800英尺, 积雨云.
小阵雨
几率 40% :
短暂存在
从 17日的 12点(UTC)到 17日的 15点(UTC)
风速30节,风向西,有时为45节阵风
能見度: 4000
多云层高于1200英尺
阵雨, 小冰雹或雪球

TAF: EIDL 170500Z 1706/1715 27020KT 9999 FEW025 BKN035 TEMPO 1706/1715 26025G35KT -SHRA SCT018CB PROB40 TEMPO 1712/1715 26030G45KT 4000 SHRAGS BKN012

超过4000个机场的气象观测和天气预报(METAR&TAF报告)。

可查询的气象台以黄色和红色小点在地图上表示。

将鼠标移到小点上方,可查看气象台名称。

然后点击查看天气观测和预报。

如需切换地图:点击带黑十字的绿色按钮放大地图;点击带横线的绿色按钮缩小地图;或者点击绿色箭头查看邻近地区的地图。


METAR-TAF: